| time (UTC) | temp F | wind direction | speed knots | gust knots | rain 1hr in | rain 24hr in | rain mn in | humidity % | barometer mb |
| 20260906154546 | 97 | 49 | 0.9 | 4.3 | 0.00 | 0.00 | 0.00 | 59 | 1014.2 |
| 20260906153045 | 96 | 89 | 0.9 | 3.5 | 0.00 | 0.00 | 0.00 | 61 | 1014.1 |
| 20260906151547 | 95 | 138 | 1.7 | 4.3 | 0.00 | 0.00 | 0.00 | 62 | 1014.0 |
| 20260906150047 | 94 | 149 | 0.9 | 2.6 | 0.00 | 0.00 | 0.00 | 64 | 1013.9 |
| 20260906144603 | 91 | 352 | 0.0 | 2.6 | 0.00 | 0.00 | 0.00 | 69 | 1013.9 |
| 20260906143044 | 89 | 352 | 0.0 | 2.6 | 0.00 | 0.00 | 0.00 | 72 | 1013.9 |
| 20260906141543 | 86 | 0 | 0.0 | 0.0 | 0.00 | 0.00 | 0.00 | 77 | 1013.9 |
| 20260906140046 | 84 | 0 | 0.0 | 0.0 | 0.00 | 0.00 | 0.00 | 80 | 1014.0 |
| 20260906134545 | 83 | 0 | 0.0 | 0.0 | 0.00 | 0.00 | 0.00 | 82 | 1014.0 |
| 20260906133056 | 82 | 0 | 0.0 | 1.7 | 0.00 | 0.00 | 0.00 | 83 | 1013.9 |
| 20260906131542 | 80 | 0 | 0.0 | 0.0 | 0.00 | 0.00 | 0.00 | 86 | 1013.8 |
| 20260906130051 | 78 | 0 | 0.0 | 0.0 | 0.00 | 0.00 | 0.00 | 90 | 1013.8 |
| 20260906124543 | 76 | 0 | 0.0 | 0.0 | 0.00 | 0.00 | 0.00 | 94 | 1013.8 |
| 20260906123046 | 75 | 0 | 0.0 | 0.0 | 0.00 | 0.00 | 0.00 | 96 | 1013.6 |
| 20260906121544 | 74 | 0 | 0.0 | 0.0 | 0.00 | 0.00 | 0.00 | 96 | 1013.4 |
| 20260906120048 | 74 | 0 | 0.0 | 0.0 | 0.00 | 0.00 | 0.00 | 95 | 1013.2 |
| 20260906114552 | 74 | 0 | 0.0 | 0.9 | 0.00 | 0.00 | 0.00 | 95 | 1013.0 |
| 20260906113046 | 74 | 0 | 0.0 | 0.0 | 0.00 | 0.00 | 0.00 | 94 | 1013.1 |
| 20260906111544 | 74 | 0 | 0.0 | 0.0 | 0.00 | 0.00 | 0.00 | 94 | 1012.9 |
| 20260906110045 | 75 | 0 | 0.0 | 0.9 | 0.00 | 0.00 | 0.00 | 94 | 1012.8 |
| 20260906104557 | 75 | 0 | 0.0 | 0.0 | 0.00 | 0.00 | 0.00 | 93 | 1012.8 |
| 20260906103045 | 75 | 0 | 0.0 | 0.0 | 0.00 | 0.00 | 0.00 | 94 | 1012.7 |
| 20260906101543 | 75 | 0 | 0.0 | 0.0 | 0.00 | 0.00 | 0.00 | 94 | 1012.6 |
| 20260906100043 | 75 | 0 | 0.0 | 0.0 | 0.00 | 0.00 | 0.00 | 93 | 1012.4 |
| 20260906094558 | 75 | 0 | 0.0 | 0.0 | 0.00 | 0.00 | 0.00 | 93 | 1012.4 |
| 20260906093110 | 75 | 0 | 0.0 | 0.0 | 0.00 | 0.00 | 0.00 | 93 | 1012.4 |
| 20260906091544 | 75 | 0 | 0.0 | 0.0 | 0.00 | 0.00 | 0.00 | 93 | 1012.2 |
| 20260906090048 | 75 | 0 | 0.0 | 0.0 | 0.00 | 0.00 | 0.00 | 93 | 1012.1 |
| 20260906084545 | 75 | 0 | 0.0 | 0.0 | 0.00 | 0.00 | 0.00 | 93 | 1012.0 |
| 20260906083048 | 75 | 0 | 0.0 | 0.0 | 0.00 | 0.00 | 0.00 | 93 | 1012.0 |
| 20260906081545 | 75 | 0 | 0.0 | 0.0 | 0.00 | 0.00 | 0.00 | 92 | 1011.9 |
| 20260906080044 | 76 | 0 | 0.0 | 0.0 | 0.00 | 0.00 | 0.00 | 91 | 1011.9 |
| 20260906074542 | 76 | 0 | 0.0 | 0.0 | 0.00 | 0.00 | 0.00 | 91 | 1011.9 |
| 20260906073045 | 76 | 0 | 0.0 | 0.0 | 0.00 | 0.00 | 0.00 | 90 | 1012.0 |
| 20260906071544 | 76 | 0 | 0.0 | 0.0 | 0.00 | 0.00 | 0.00 | 90 | 1012.2 |
| 20260906070044 | 77 | 0 | 0.0 | 0.0 | 0.00 | 0.00 | 0.00 | 90 | 1012.3 |
| 20260906064546 | 77 | 0 | 0.0 | 0.0 | 0.00 | 0.00 | 0.00 | 90 | 1012.3 |
| 20260906063049 | 77 | 0 | 0.0 | 0.0 | 0.00 | 0.00 | 0.00 | 89 | 1012.4 |
| 20260906061548 | 78 | 0 | 0.0 | 0.0 | 0.00 | 0.00 | 0.00 | 89 | 1012.4 |
| 20260906060044 | 78 | 0 | 0.0 | 0.0 | 0.00 | 0.00 | 0.00 | 88 | 1012.3 |
| 20260906054549 | 78 | 0 | 0.0 | 0.0 | 0.00 | 0.00 | 0.00 | 88 | 1012.4 |
| 20260906053045 | 79 | 0 | 0.0 | 0.0 | 0.00 | 0.00 | 0.00 | 87 | 1012.5 |
| 20260906051555 | 79 | 0 | 0.0 | 0.0 | 0.00 | 0.00 | 0.00 | 86 | 1012.3 |
| 20260906050045 | 78 | 0 | 0.0 | 0.0 | 0.00 | 0.00 | 0.00 | 87 | 1012.3 |
| 20260906044553 | 79 | 0 | 0.0 | 0.0 | 0.00 | 0.00 | 0.00 | 87 | 1012.2 |
| 20260906043045 | 79 | 0 | 0.0 | 0.0 | 0.00 | 0.00 | 0.00 | 86 | 1012.1 |
| 20260906041544 | 80 | 0 | 0.0 | 0.0 | 0.00 | 0.00 | 0.00 | 85 | 1012.0 |
| 20260906040047 | 80 | 0 | 0.0 | 0.0 | 0.00 | 0.00 | 0.00 | 84 | 1012.1 |
| 20260906034545 | 81 | 0 | 0.0 | 0.0 | 0.00 | 0.00 | 0.00 | 83 | 1012.0 |
| 20260906033049 | 81 | 0 | 0.0 | 0.0 | 0.00 | 0.00 | 0.00 | 83 | 1012.1 |
| 20260906031543 | 82 | 0 | 0.0 | 0.0 | 0.00 | 0.00 | 0.00 | 82 | 1012.4 |
| 20260906030048 | 83 | 0 | 0.0 | 0.0 | 0.00 | 0.00 | 0.00 | 80 | 1012.5 |
| 20260906024551 | 84 | 0 | 0.0 | 0.0 | 0.00 | 0.00 | 0.00 | 78 | 1012.4 |
| 20260906023044 | 85 | 0 | 0.0 | 0.0 | 0.00 | 0.00 | 0.00 | 74 | 1012.3 |
| 20260906021544 | 86 | 0 | 0.0 | 0.0 | 0.00 | 0.00 | 0.00 | 72 | 1012.2 |
| 20260906020051 | 87 | 0 | 0.0 | 0.0 | 0.00 | 0.00 | 0.00 | 71 | 1011.8 |
| 20260906014615 | 89 | 0 | 0.0 | 0.0 | 0.00 | 0.00 | 0.00 | 65 | 1011.6 |
| 20260906013049 | 89 | 0 | 0.0 | 0.0 | 0.00 | 0.00 | 0.00 | 65 | 1011.6 |
| 20260906011545 | 90 | 0 | 0.0 | 1.7 | 0.00 | 0.00 | 0.00 | 64 | 1011.4 |
| 20260906010050 | 90 | 303 | 0.9 | 3.5 | 0.00 | 0.00 | 0.00 | 65 | 1011.0 |
| 20260906004541 | 91 | 0 | 0.0 | 6.1 | 0.00 | 0.00 | 0.00 | 64 | 1010.9 |
| 20260906003045 | 93 | 0 | 0.0 | 1.7 | 0.00 | 0.00 | 0.00 | 59 | 1010.8 |
| 20260906001544 | 95 | 0 | 0.0 | 0.0 | 0.00 | 0.00 | 0.00 | 59 | 1010.9 |
| 20260906000044 | 97 | 0 | 0.0 | 0.9 | 0.00 | 0.00 | 0.00 | 59 | 1011.0 |
| 20260905234542 | 98 | 0 | 0.0 | 1.7 | 0.00 | 0.00 | 0.00 | 55 | 1011.0 |
| 20260905233047 | 100 | 5 | 0.9 | 2.6 | 0.00 | 0.00 | 0.00 | 50 | 1010.9 |
| 20260905231547 | 100 | 0 | 0.0 | 2.6 | 0.00 | 0.00 | 0.00 | 49 | 1010.9 |
| 20260905230045 | 99 | 0 | 0.9 | 3.5 | 0.00 | 0.00 | 0.00 | 50 | 1010.9 |
| 20260905224545 | 99 | 51 | 1.7 | 3.5 | 0.00 | 0.00 | 0.00 | 49 | 1010.9 |
| 20260905223046 | 100 | 23 | 0.9 | 4.3 | 0.00 | 0.00 | 0.00 | 48 | 1010.9 |
| 20260905221605 | 99 | 76 | 0.9 | 3.5 | 0.00 | 0.00 | 0.00 | 48 | 1011.0 |
| 20260905220046 | 99 | 38 | 0.9 | 3.5 | 0.00 | 0.00 | 0.00 | 50 | 1011.0 |
| 20260905214542 | 99 | 26 | 1.7 | 4.3 | 0.00 | 0.00 | 0.00 | 50 | 1011.1 |
| 20260905213056 | 100 | 26 | 3.5 | 8.7 | 0.00 | 0.00 | 0.00 | 48 | 1011.2 |
| 20260905211546 | 100 | 26 | 1.7 | 7.8 | 0.00 | 0.00 | 0.00 | 50 | 1011.4 |
| 20260905210052 | 104 | 15 | 3.5 | 7.8 | 0.00 | 0.00 | 0.00 | 46 | 1011.5 |
| 20260905204547 | 104 | 149 | 0.9 | 4.3 | 0.00 | 0.00 | 0.00 | 41 | 1011.6 |
| 20260905203044 | 103 | 240 | 0.9 | 4.3 | 0.00 | 0.00 | 0.00 | 40 | 1012.0 |
| 20260905201601 | 102 | 97 | 0.9 | 7.8 | 0.00 | 0.00 | 0.00 | 45 | 1012.2 |
| 20260905200046 | 102 | 188 | 0.9 | 8.7 | 0.00 | 0.00 | 0.00 | 42 | 1012.3 |
| 20260905194544 | 102 | 0 | 0.9 | 6.1 | 0.00 | 0.00 | 0.00 | 41 | 1012.6 |
| 20260905193054 | 102 | 0 | 1.7 | 5.2 | 0.00 | 0.00 | 0.00 | 44 | 1012.9 |
| 20260905191544 | 101 | 49 | 2.6 | 7.0 | 0.00 | 0.00 | 0.00 | 44 | 1013.1 |
| 20260905190042 | 101 | 128 | 2.6 | 6.1 | 0.00 | 0.00 | 0.00 | 47 | 1013.3 |
| 20260905184554 | 100 | 266 | 0.0 | 6.1 | 0.00 | 0.00 | 0.00 | 45 | 1013.4 |
| 20260905183045 | 100 | 83 | 0.0 | 7.0 | 0.00 | 0.00 | 0.00 | 47 | 1013.6 |
| 20260905181559 | 100 | 140 | 2.6 | 5.2 | 0.00 | 0.00 | 0.00 | 48 | 1013.8 |
| 20260905180044 | 101 | 177 | 0.9 | 2.6 | 0.00 | 0.00 | 0.00 | 50 | 1013.7 |
| 20260905174551 | 100 | 0 | 0.9 | 3.5 | 0.00 | 0.00 | 0.00 | 50 | 1013.8 |
| 20260905173046 | 100 | 74 | 1.7 | 5.2 | 0.00 | 0.00 | 0.00 | 50 | 1014.0 |
| 20260905171544 | 100 | 59 | 0.9 | 4.3 | 0.00 | 0.00 | 0.00 | 51 | 1014.2 |
| 20260905170043 | 100 | 23 | 0.9 | 4.3 | 0.00 | 0.00 | 0.00 | 51 | 1014.4 |
| 20260905164545 | 99 | 15 | 0.0 | 5.2 | 0.00 | 0.00 | 0.00 | 48 | 1014.5 |
| 20260905163046 | 99 | 46 | 0.9 | 4.3 | 0.00 | 0.00 | 0.00 | 49 | 1014.8 |
| 20260905161558 | 98 | 0 | 0.0 | 2.6 | 0.00 | 0.00 | 0.00 | 54 | 1014.7 |
| 20260905160045 | 96 | 0 | 0.0 | 3.5 | 0.00 | 0.00 | 0.00 | 57 | 1014.9 |